createdAt,value
2023-03-04T00:01:17.085Z,7.72
2023-03-04T00:03:43.689Z,8.35
2023-03-04T00:06:10.408Z,7.45
2023-03-04T00:08:38.066Z,7.60
2023-03-04T00:11:04.919Z,8.18
2023-03-04T00:13:31.586Z,7.45
2023-03-04T00:15:58.267Z,7.35
2023-03-04T00:18:24.991Z,6.47
2023-03-04T00:20:51.633Z,7.20
2023-03-04T00:23:18.488Z,9.10
2023-03-04T00:25:45.141Z,7.53
2023-03-04T00:28:11.756Z,7.18
2023-03-04T00:30:38.394Z,6.38
2023-03-04T00:33:05.019Z,7.10
2023-03-04T00:35:31.672Z,6.63
2023-03-04T00:37:58.307Z,6.97
2023-03-04T00:40:24.942Z,7.03
2023-03-04T00:42:52.048Z,7.50
2023-03-04T00:45:19.025Z,6.85
2023-03-04T00:47:45.672Z,7.32
2023-03-04T00:50:12.489Z,6.38
2023-03-04T00:52:39.119Z,6.85
2023-03-04T00:55:06.682Z,6.97
2023-03-04T00:57:33.325Z,7.85
2023-03-04T01:00:00.020Z,6.35
2023-03-04T01:02:26.793Z,6.50
2023-03-04T01:04:53.525Z,7.22
2023-03-04T01:07:20.153Z,7.68
2023-03-04T01:09:46.837Z,5.97
2023-03-04T01:12:13.481Z,6.60
2023-03-04T01:14:40.097Z,6.65
2023-03-04T01:17:06.915Z,6.13
2023-03-04T01:19:33.577Z,6.55
2023-03-04T01:22:00.344Z,6.47
2023-03-04T01:24:27.158Z,6.68
2023-03-04T01:26:53.907Z,5.97
2023-03-04T01:29:20.639Z,6.05
2023-03-04T01:31:47.476Z,6.22
2023-03-04T01:34:14.158Z,5.30
2023-03-04T01:36:40.835Z,6.05
2023-03-04T01:39:07.470Z,5.60
2023-03-04T01:41:34.301Z,5.72
2023-03-04T01:44:02.517Z,4.65
2023-03-04T01:46:30.978Z,5.72
2023-03-04T01:48:58.362Z,5.75
2023-03-04T01:51:25.299Z,4.95
2023-03-04T01:53:54.772Z,4.45
2023-03-04T01:56:31.195Z,5.50
2023-03-04T01:59:19.146Z,5.07
2023-03-04T02:01:48.858Z,5.13
2023-03-04T02:04:17.650Z,4.85
2023-03-04T02:06:44.734Z,4.82
2023-03-04T02:09:12.092Z,4.85
2023-03-04T02:11:39.342Z,4.82
2023-03-04T02:14:07.118Z,5.32
2023-03-04T02:16:33.880Z,5.30
2023-03-04T02:19:00.833Z,3.88
2023-03-04T02:21:34.072Z,5.20
2023-03-04T02:24:05.573Z,5.35
2023-03-04T02:26:32.903Z,5.78
2023-03-04T02:29:00.953Z,5.97
2023-03-04T02:31:32.365Z,4.75
2023-03-04T02:34:03.115Z,4.60
2023-03-04T02:36:30.396Z,5.28
2023-03-04T02:39:02.299Z,4.80
2023-03-04T02:41:30.366Z,4.38
2023-03-04T02:43:57.116Z,4.72
2023-03-04T02:46:23.931Z,5.70
2023-03-04T02:48:51.834Z,4.85
2023-03-04T02:51:18.647Z,5.97
2023-03-04T02:53:45.422Z,6.53
2023-03-04T02:56:12.132Z,4.57
2023-03-04T02:58:40.124Z,4.57
2023-03-04T03:01:06.985Z,4.80
2023-03-04T03:03:33.669Z,4.72
2023-03-04T03:06:00.333Z,4.93
2023-03-04T03:08:27.081Z,4.35
2023-03-04T03:10:53.674Z,3.90
2023-03-04T03:13:20.403Z,3.88
2023-03-04T03:15:48.456Z,4.63
2023-03-04T03:18:17.279Z,5.03
2023-03-04T03:20:43.934Z,4.45
2023-03-04T03:23:10.632Z,4.38
2023-03-04T03:25:37.461Z,4.97
2023-03-04T03:28:04.334Z,3.65
2023-03-04T03:30:31.014Z,3.67
2023-03-04T03:32:57.976Z,4.05
2023-03-04T03:35:24.600Z,3.50
2023-03-04T03:37:51.277Z,3.22
2023-03-04T03:40:18.112Z,3.92
2023-03-04T03:42:45.022Z,4.03
2023-03-04T03:45:12.540Z,3.17
2023-03-04T03:47:39.377Z,3.33
2023-03-04T03:50:07.033Z,3.88
2023-03-04T03:52:33.735Z,4.00
2023-03-04T03:55:02.077Z,4.00
2023-03-04T03:57:29.666Z,4.35
2023-03-04T03:59:57.040Z,3.70
2023-03-04T04:02:23.912Z,4.15
2023-03-04T04:04:50.723Z,5.25
2023-03-04T04:07:17.931Z,3.75
2023-03-04T04:09:44.654Z,4.38
2023-03-04T04:12:14.556Z,4.07
2023-03-04T04:14:41.409Z,3.67
2023-03-04T04:17:08.449Z,3.60
2023-03-04T04:19:35.178Z,3.55
2023-03-04T04:22:02.842Z,3.30
2023-03-04T04:24:30.098Z,3.42
2023-03-04T04:26:57.428Z,3.30
2023-03-04T04:29:24.154Z,3.70
2023-03-04T04:31:51.070Z,3.55
2023-03-04T04:34:17.789Z,3.85
2023-03-04T04:36:44.539Z,3.53
2023-03-04T04:39:11.181Z,2.95
2023-03-04T04:41:40.694Z,3.22
2023-03-04T04:44:08.011Z,2.83
2023-03-04T04:46:34.766Z,2.95
2023-03-04T04:49:01.864Z,2.65
2023-03-04T04:51:28.907Z,3.05
2023-03-04T04:53:55.574Z,2.78
2023-03-04T04:56:26.262Z,3.30
2023-03-04T04:59:01.898Z,2.95
2023-03-04T05:01:29.031Z,3.08
2023-03-04T05:03:55.979Z,2.80
2023-03-04T05:06:24.714Z,2.60
2023-03-04T05:08:51.734Z,3.90
2023-03-04T05:11:19.422Z,3.65
2023-03-04T05:13:47.341Z,2.60
2023-03-04T05:16:14.665Z,3.60
2023-03-04T05:18:41.352Z,2.80
2023-03-04T05:21:08.440Z,2.30
2023-03-04T05:23:38.114Z,3.38
2023-03-04T05:26:06.540Z,3.50
2023-03-04T05:28:33.507Z,2.88
2023-03-04T05:31:00.607Z,2.75
2023-03-04T05:33:27.462Z,3.13
2023-03-04T05:35:55.079Z,3.00
2023-03-04T05:38:22.283Z,2.60
2023-03-04T05:40:49.325Z,3.05
2023-03-04T05:43:16.077Z,2.75
2023-03-04T05:45:42.971Z,2.55
2023-03-04T05:48:09.994Z,2.75
2023-03-04T05:50:36.698Z,3.30
2023-03-04T05:53:03.393Z,3.13
2023-03-04T05:55:30.168Z,2.47
2023-03-04T05:57:57.637Z,2.60
2023-03-04T06:00:25.300Z,3.72
2023-03-04T06:02:52.220Z,3.17
2023-03-04T06:05:19.630Z,2.65
2023-03-04T06:07:46.333Z,2.22
2023-03-04T06:10:15.630Z,2.83
2023-03-04T06:12:42.764Z,4.15
2023-03-04T06:15:10.504Z,3.08
2023-03-04T06:17:40.650Z,3.60
2023-03-04T06:20:10.143Z,2.88
2023-03-04T06:22:36.853Z,2.80
2023-03-04T06:25:03.907Z,2.50
2023-03-04T06:27:30.841Z,3.00
2023-03-04T06:29:57.752Z,2.90
2023-03-04T06:32:24.565Z,3.20
2023-03-04T06:34:51.348Z,2.97
2023-03-04T06:37:18.079Z,3.05
2023-03-04T06:39:45.591Z,2.70
2023-03-04T06:42:13.250Z,2.75
2023-03-04T06:44:40.082Z,2.95
2023-03-04T06:47:07.079Z,3.42
2023-03-04T06:49:33.854Z,2.40
2023-03-04T06:52:00.761Z,3.13
2023-03-04T06:54:27.550Z,2.70
2023-03-04T06:56:54.176Z,2.92
2023-03-04T06:59:20.860Z,2.45
2023-03-04T07:01:47.505Z,3.22
2023-03-04T07:04:14.744Z,2.40
2023-03-04T07:06:41.440Z,1.92
2023-03-04T07:09:08.115Z,2.58
2023-03-04T07:11:34.965Z,2.50
2023-03-04T07:14:01.603Z,2.55
2023-03-04T07:16:28.446Z,2.42
2023-03-04T07:18:55.598Z,2.60
2023-03-04T07:21:22.292Z,2.08
2023-03-04T07:23:48.983Z,2.58
2023-03-04T07:26:16.297Z,2.90
2023-03-04T07:28:43.978Z,2.08
2023-03-04T07:31:21.820Z,2.83
2023-03-04T07:33:48.741Z,2.22
2023-03-04T07:36:15.828Z,2.20
2023-03-04T07:38:47.248Z,2.63
2023-03-04T07:41:13.955Z,2.15
2023-03-04T07:43:40.653Z,2.95
2023-03-04T07:46:07.831Z,2.25
2023-03-04T07:48:34.561Z,2.65
2023-03-04T07:51:14.875Z,2.10
2023-03-04T07:53:44.031Z,2.20
2023-03-04T07:56:15.488Z,2.38
2023-03-04T07:58:42.190Z,2.50
2023-03-04T08:01:14.309Z,2.17
2023-03-04T08:03:41.504Z,2.13
2023-03-04T08:06:10.700Z,1.98
2023-03-04T08:08:38.062Z,2.08
2023-03-04T08:11:09.594Z,1.63
2023-03-04T08:13:36.648Z,1.85
2023-03-04T08:16:04.409Z,1.90
2023-03-04T08:18:31.425Z,2.20
2023-03-04T08:20:58.065Z,1.85
2023-03-04T08:23:24.935Z,2.35
2023-03-04T08:25:52.231Z,1.80
2023-03-04T08:28:19.163Z,2.10
2023-03-04T08:30:52.131Z,2.00
2023-03-04T08:33:18.898Z,2.00
2023-03-04T08:35:45.659Z,1.85
2023-03-04T08:38:12.447Z,2.15
2023-03-04T08:40:39.149Z,1.95
2023-03-04T08:43:05.837Z,1.60
2023-03-04T08:45:32.478Z,1.33
2023-03-04T08:47:59.171Z,1.58
2023-03-04T08:50:27.369Z,1.45
2023-03-04T08:52:54.033Z,1.23
2023-03-04T08:55:20.703Z,1.73
2023-03-04T08:57:47.384Z,1.65
2023-03-04T09:00:14.523Z,1.65
2023-03-04T09:02:41.249Z,1.30
2023-03-04T09:05:08.466Z,1.10
2023-03-04T09:07:35.129Z,1.55
2023-03-04T09:10:01.902Z,1.38
2023-03-04T09:12:28.570Z,1.20
2023-03-04T09:15:09.843Z,1.13
2023-03-04T09:17:38.030Z,1.17
2023-03-04T09:20:05.841Z,1.63
2023-03-04T09:22:32.470Z,1.25
2023-03-04T09:24:59.133Z,1.08
2023-03-04T09:27:25.858Z,1.58
2023-03-04T09:29:52.585Z,1.33
2023-03-04T09:32:19.338Z,0.90
2023-03-04T09:34:46.062Z,1.55
2023-03-04T09:37:12.810Z,1.25
2023-03-04T09:39:39.435Z,1.05
2023-03-04T09:42:09.168Z,1.33
2023-03-04T09:44:43.168Z,0.80
2023-03-04T09:47:16.433Z,0.90
2023-03-04T09:49:48.293Z,1.83
2023-03-04T09:52:21.557Z,1.15
2023-03-04T09:55:06.015Z,1.50
2023-03-04T09:57:38.348Z,1.08
2023-03-04T10:00:10.284Z,0.90
2023-03-04T10:02:50.957Z,0.90
2023-03-04T10:05:21.566Z,1.23
2023-03-04T10:07:58.614Z,1.13
2023-03-04T10:10:39.389Z,1.17
2023-03-04T10:13:16.354Z,1.08
2023-03-04T10:15:47.068Z,1.23
2023-03-04T10:18:32.652Z,1.20
2023-03-04T10:21:08.430Z,1.20
2023-03-04T10:23:38.605Z,1.48
2023-03-04T10:26:14.201Z,1.40
2023-03-04T10:28:41.780Z,1.73
2023-03-04T10:31:08.390Z,1.60
2023-03-04T10:33:37.977Z,1.40
2023-03-04T10:36:28.985Z,1.45
2023-03-04T10:39:13.721Z,1.45
2023-03-04T10:41:46.275Z,1.55
2023-03-04T10:46:47.097Z,0.98
2023-03-04T10:49:20.035Z,1.10
2023-03-04T10:51:51.854Z,1.10
2023-03-04T10:54:28.723Z,1.27
2023-03-04T10:57:13.052Z,1.15
2023-03-04T10:59:58.031Z,1.40
2023-03-04T11:02:38.591Z,1.05
2023-03-04T11:05:24.894Z,1.23
2023-03-04T11:07:58.334Z,0.80
2023-03-04T11:10:37.091Z,0.98
2023-03-04T11:13:12.981Z,0.90
2023-03-04T11:16:01.864Z,0.70
2023-03-04T11:18:43.615Z,0.75
2023-03-04T11:21:23.188Z,0.88
2023-03-04T11:24:03.070Z,1.67
2023-03-04T11:26:37.614Z,2.78
2023-03-04T11:29:31.587Z,1.80
2023-03-04T11:32:06.199Z,0.70
2023-03-04T11:35:06.507Z,0.80
2023-03-04T11:37:49.234Z,0.90
2023-03-04T11:40:50.518Z,0.80
2023-03-04T11:43:23.268Z,0.93
2023-03-04T11:46:08.729Z,0.80
2023-03-04T11:49:01.936Z,0.75
2023-03-04T11:51:58.065Z,0.70
2023-03-04T11:54:43.688Z,0.73
2023-03-04T11:57:42.592Z,0.70
2023-03-04T12:00:30.953Z,0.73
2023-03-04T12:03:27.623Z,0.60
2023-03-04T12:06:30.184Z,1.23
2023-03-04T12:09:15.108Z,0.80
2023-03-04T12:12:29.874Z,0.80
2023-03-04T12:15:08.135Z,0.90
2023-03-04T12:17:46.585Z,0.85
2023-03-04T12:20:22.069Z,0.80
2023-03-04T12:23:11.525Z,0.90
2023-03-04T12:25:38.192Z,0.90
2023-03-04T12:28:27.649Z,1.40
2023-03-04T12:31:21.142Z,0.70
2023-03-04T12:34:05.947Z,0.70
2023-03-04T12:37:10.227Z,0.85
2023-03-04T12:42:26.504Z,0.85
2023-03-04T12:45:16.844Z,0.77
2023-03-04T12:48:18.914Z,0.70
2023-03-04T12:51:00.125Z,0.73
2023-03-04T12:53:41.813Z,0.80
2023-03-04T12:56:25.366Z,1.10
2023-03-04T12:58:52.962Z,0.70
2023-03-04T13:01:30.598Z,0.90
2023-03-04T13:04:18.596Z,0.90
2023-03-04T13:07:13.730Z,0.80
2023-03-04T13:10:01.326Z,1.02
2023-03-04T13:12:28.047Z,0.88
2023-03-04T13:15:09.799Z,0.80
2023-03-04T13:17:38.139Z,0.82
2023-03-04T13:20:33.775Z,0.90
2023-03-04T13:23:14.181Z,1.20
2023-03-04T13:25:45.139Z,0.90
2023-03-04T13:28:11.728Z,1.20
2023-03-04T13:30:38.419Z,1.60
2023-03-04T13:33:11.261Z,1.23
2023-03-04T13:35:49.828Z,1.33
2023-03-04T13:38:32.295Z,1.27
2023-03-04T13:41:17.442Z,1.60
2023-03-04T13:43:45.143Z,1.40
2023-03-04T13:46:21.151Z,1.10
2023-03-04T13:48:50.866Z,1.40
2023-03-04T13:51:30.148Z,1.67
2023-03-04T13:54:08.106Z,1.65
2023-03-04T13:56:37.484Z,1.50
2023-03-04T13:59:07.658Z,1.58
2023-03-04T14:01:35.581Z,1.17
2023-03-04T14:04:13.587Z,1.42
2023-03-04T14:06:45.488Z,1.75
2023-03-04T14:09:20.532Z,1.55
2023-03-04T14:11:48.621Z,1.85
2023-03-04T14:14:20.238Z,1.60
2023-03-04T14:16:57.778Z,1.60
2023-03-04T14:19:35.916Z,1.60
2023-03-04T14:22:02.622Z,1.30
2023-03-04T14:24:30.884Z,1.52
2023-03-04T14:27:13.859Z,1.70
2023-03-04T14:29:40.632Z,1.55
2023-03-04T14:32:08.676Z,1.67
2023-03-04T14:34:39.611Z,1.30
2023-03-04T14:37:22.681Z,1.65
2023-03-04T14:39:57.515Z,2.22
2023-03-04T14:42:30.033Z,1.60
2023-03-04T14:44:59.943Z,1.15
2023-03-04T14:47:36.180Z,1.50
2023-03-04T14:50:06.683Z,1.40
2023-03-04T14:52:42.672Z,1.42
2023-03-04T14:55:15.368Z,1.63
2023-03-04T14:57:44.533Z,1.98
2023-03-04T15:00:20.583Z,1.60
2023-03-04T15:02:56.395Z,1.60
2023-03-04T15:05:43.353Z,1.98
2023-03-04T15:08:38.270Z,1.73
2023-03-04T15:11:07.190Z,1.25
2023-03-04T15:13:45.192Z,1.75
2023-03-04T15:16:14.304Z,1.95
2023-03-04T15:18:55.208Z,1.55
2023-03-04T15:21:21.928Z,1.83
2023-03-04T15:23:48.565Z,2.25
2023-03-04T15:26:15.266Z,1.75
2023-03-04T15:28:42.886Z,1.98
2023-03-04T15:31:24.199Z,1.60
2023-03-04T15:33:50.940Z,2.03
2023-03-04T15:36:23.192Z,1.83
2023-03-04T15:38:52.329Z,1.65
2023-03-04T15:41:25.356Z,1.73
2023-03-04T15:43:53.279Z,1.70
2023-03-04T15:46:20.368Z,1.90
2023-03-04T15:48:47.648Z,1.67
2023-03-04T15:51:20.952Z,1.77
2023-03-04T15:53:56.249Z,1.95
2023-03-04T15:56:27.148Z,1.90
2023-03-04T15:59:00.674Z,1.60
2023-03-04T16:01:28.058Z,1.52
2023-03-04T16:03:54.692Z,1.60
2023-03-04T16:06:23.747Z,1.90
2023-03-04T16:08:52.194Z,1.60
2023-03-04T16:11:41.669Z,2.45
2023-03-04T16:14:11.332Z,1.83
2023-03-04T16:16:38.040Z,2.67
2023-03-04T16:19:04.728Z,1.83
2023-03-04T16:21:31.420Z,2.40
2023-03-04T16:23:58.358Z,1.73
2023-03-04T16:26:27.240Z,1.67
2023-03-04T16:28:54.074Z,1.25
2023-03-04T16:31:21.838Z,1.15
2023-03-04T16:33:49.135Z,1.30
2023-03-04T16:36:22.385Z,2.00
2023-03-04T16:38:50.214Z,1.10
2023-03-04T16:41:20.308Z,1.38
2023-03-04T16:43:46.937Z,1.67
2023-03-04T16:46:14.131Z,1.23
2023-03-04T16:48:40.932Z,1.30
2023-03-04T16:51:16.694Z,1.20
2023-03-04T16:53:48.641Z,1.10
2023-03-04T16:56:18.067Z,1.92
2023-03-04T16:58:44.968Z,1.67
2023-03-04T17:01:20.347Z,1.20
2023-03-04T17:03:47.319Z,1.80
2023-03-04T17:06:14.971Z,1.73
2023-03-04T17:08:42.059Z,1.52
2023-03-04T17:11:12.642Z,1.30
2023-03-04T17:13:39.515Z,2.25
2023-03-04T17:16:06.401Z,1.10
2023-03-04T17:18:34.282Z,1.45
2023-03-04T17:21:06.209Z,1.25
2023-03-04T17:23:33.343Z,1.30
2023-03-04T17:25:59.985Z,1.45
2023-03-04T17:28:27.210Z,1.08
2023-03-04T17:30:54.065Z,1.05
2023-03-04T17:33:21.469Z,1.48
2023-03-04T17:35:48.238Z,1.48
2023-03-04T17:38:15.709Z,1.05
2023-03-04T17:40:42.870Z,1.30
2023-03-04T17:43:12.337Z,1.23
2023-03-04T17:45:40.592Z,1.30
2023-03-04T17:48:08.289Z,1.30
2023-03-04T17:50:35.091Z,1.20
2023-03-04T17:53:01.730Z,1.48
2023-03-04T17:55:28.394Z,2.20
2023-03-04T17:57:57.466Z,2.08
2023-03-04T18:00:24.355Z,1.67
2023-03-04T18:02:51.050Z,1.55
2023-03-04T18:05:17.946Z,2.03
2023-03-04T18:07:44.598Z,1.85
2023-03-04T18:10:11.626Z,1.52
2023-03-04T18:12:38.282Z,1.50
2023-03-04T18:15:05.490Z,1.23
2023-03-04T18:17:32.255Z,1.70
2023-03-04T18:19:58.936Z,1.40
2023-03-04T18:22:25.682Z,1.15
2023-03-04T18:24:52.372Z,1.00
2023-03-04T18:27:22.028Z,0.77
2023-03-04T18:29:48.757Z,1.55
2023-03-04T18:32:15.569Z,1.40
2023-03-04T18:34:42.358Z,1.40
2023-03-04T18:37:09.083Z,0.98
2023-03-04T18:39:36.086Z,1.27
2023-03-04T18:42:02.844Z,1.10
2023-03-04T18:44:29.520Z,0.80
2023-03-04T18:46:58.214Z,0.98
2023-03-04T18:49:25.015Z,1.42
2023-03-04T18:51:51.756Z,1.48
2023-03-04T18:54:18.644Z,1.38
2023-03-04T18:56:50.279Z,1.50
2023-03-04T18:59:40.160Z,1.20
2023-03-04T19:02:27.059Z,1.40
2023-03-04T19:04:57.245Z,1.15
2023-03-04T19:07:23.862Z,1.02
2023-03-04T19:09:50.733Z,0.82
2023-03-04T19:12:17.433Z,0.90
2023-03-04T19:14:44.069Z,1.38
2023-03-04T19:17:10.792Z,1.45
2023-03-04T19:19:37.456Z,1.33
2023-03-04T19:22:04.165Z,1.10
2023-03-04T19:24:30.755Z,1.40
2023-03-04T19:26:57.425Z,1.05
2023-03-04T19:29:24.117Z,1.25
2023-03-04T19:31:51.038Z,1.38
2023-03-04T19:34:17.721Z,1.15
2023-03-04T19:36:44.417Z,0.93
2023-03-04T19:39:14.826Z,1.15
2023-03-04T19:41:44.884Z,1.10
2023-03-04T19:44:12.119Z,1.30
2023-03-04T19:46:38.818Z,1.45
2023-03-04T19:49:06.025Z,1.00
2023-03-04T19:51:33.074Z,1.33
2023-03-04T19:54:00.319Z,1.15
2023-03-04T19:56:26.979Z,1.13
2023-03-04T19:58:57.170Z,1.27
2023-03-04T20:01:30.043Z,1.45
2023-03-04T20:04:06.138Z,1.80
2023-03-04T20:06:36.337Z,1.52
2023-03-04T20:09:03.483Z,1.75
2023-03-04T20:11:31.134Z,2.05
2023-03-04T20:13:58.759Z,1.33
2023-03-04T20:16:26.127Z,1.35
2023-03-04T20:18:53.238Z,1.30
2023-03-04T20:21:20.233Z,1.02
2023-03-04T20:23:47.087Z,1.10
2023-03-04T20:26:13.726Z,1.73
2023-03-04T20:28:40.386Z,1.17
2023-03-04T20:31:11.756Z,1.65
2023-03-04T20:33:38.536Z,1.50
2023-03-04T20:36:05.558Z,0.85
2023-03-04T20:38:32.190Z,1.40
2023-03-04T20:41:08.176Z,1.02
2023-03-04T20:43:35.029Z,1.27
2023-03-04T20:46:43.217Z,0.82
2023-03-04T20:49:16.164Z,1.25
2023-03-04T20:51:43.014Z,0.95
2023-03-04T20:54:10.118Z,1.00
2023-03-04T20:56:37.756Z,0.40
2023-03-04T20:59:06.848Z,0.70
2023-03-04T21:01:33.733Z,0.80
2023-03-04T21:04:01.347Z,0.80
2023-03-04T21:06:29.119Z,0.70
2023-03-04T21:08:57.105Z,1.02
2023-03-04T21:11:24.343Z,0.57
2023-03-04T21:13:57.576Z,1.10
2023-03-04T21:16:27.099Z,1.05
2023-03-04T21:18:53.883Z,1.00
2023-03-04T21:21:24.484Z,1.92
2023-03-04T21:23:53.463Z,1.65
2023-03-04T21:26:22.216Z,1.10
2023-03-04T21:28:49.833Z,1.25
2023-03-04T21:31:21.749Z,0.90
2023-03-04T21:33:48.849Z,1.20
2023-03-04T21:36:15.789Z,1.13
2023-03-04T21:38:44.250Z,1.00
2023-03-04T21:41:15.988Z,1.13
2023-03-04T21:43:43.086Z,1.50
2023-03-04T21:46:10.458Z,1.00
2023-03-04T21:48:37.494Z,0.90
2023-03-04T21:51:07.376Z,1.27
2023-03-04T21:53:35.586Z,1.50
2023-03-04T21:56:03.153Z,0.88
2023-03-04T21:58:30.423Z,0.70
2023-03-04T22:00:59.026Z,0.85
2023-03-04T22:03:27.118Z,0.85
2023-03-04T22:05:53.955Z,1.08
2023-03-04T22:08:21.305Z,0.70
2023-03-04T22:10:48.325Z,1.10
2023-03-04T22:13:16.604Z,1.50
2023-03-04T22:15:44.944Z,0.82
2023-03-04T22:18:13.925Z,0.70
2023-03-04T22:20:43.036Z,0.98
2023-03-04T22:23:10.455Z,1.55
2023-03-04T22:25:39.105Z,1.02
2023-03-04T22:28:06.917Z,0.60
2023-03-04T22:30:34.745Z,1.00
2023-03-04T22:33:01.514Z,0.90
2023-03-04T22:35:28.288Z,0.80
2023-03-04T22:37:55.022Z,0.60
2023-03-04T22:40:21.718Z,0.73
2023-03-04T22:42:49.572Z,0.68
2023-03-04T22:45:18.098Z,1.20
2023-03-04T22:47:52.178Z,0.88
2023-03-04T22:50:20.695Z,1.10
2023-03-04T22:52:47.927Z,0.80
2023-03-04T22:55:16.936Z,0.85
2023-03-04T22:57:43.759Z,1.33
2023-03-04T23:00:24.285Z,0.98
2023-03-04T23:02:51.577Z,1.17
2023-03-04T23:05:22.077Z,1.20
2023-03-04T23:07:50.612Z,1.05
2023-03-04T23:10:23.677Z,1.05
2023-03-04T23:12:52.622Z,0.80
2023-03-04T23:15:20.092Z,1.05
2023-03-04T23:17:47.407Z,1.17
2023-03-04T23:20:17.836Z,1.58
2023-03-04T23:22:45.809Z,0.88
2023-03-04T23:25:13.114Z,1.10
2023-03-04T23:27:40.885Z,0.80
2023-03-04T23:30:11.868Z,1.30
2023-03-04T23:32:38.532Z,1.08
2023-03-04T23:35:05.585Z,0.90
2023-03-04T23:37:32.325Z,0.90
2023-03-04T23:39:59.018Z,1.10
2023-03-04T23:42:25.655Z,1.02
2023-03-04T23:44:52.332Z,1.08
2023-03-04T23:47:19.101Z,1.00
2023-03-04T23:49:45.717Z,1.27
2023-03-04T23:52:12.321Z,0.90
2023-03-04T23:54:38.997Z,1.00
2023-03-04T23:57:08.738Z,0.80
2023-03-04T23:59:38.232Z,0.60
